Time;durP1;ratioP1;P1;durP2;ratioP2;P2;SDS_P1;SDS_P2;PMS_P1;PMS_P2;Temp;Humidity;BMP_temperature;BMP_pressure;BME280_temperature;BME280_humidity;BME280_pressure;Samples;Min_cycle;Max_cycle;Signal;HPM_P1;HPM_P2
2022/04/14 00:00:11;;;;;;;7.47;4.20;;;;;;;16.33;28.86;95468.25;5028728;28;20537;-63
2022/04/14 00:02:38;;;;;;;8.23;4.20;;;;;;;16.23;29.06;95471.75;5028852;28;20550;-58
2022/04/14 00:05:06;;;;;;;7.27;4.50;;;;;;;16.19;29.08;95473.38;5028972;28;20447;-58
2022/04/14 00:07:33;;;;;;;6.67;4.30;;;;;;;15.32;29.72;95475.97;5028617;28;20448;-60
2022/04/14 00:10:00;;;;;;;10.33;4.37;;;;;;;15.26;29.94;95475.19;5028472;28;20829;-58
2022/04/14 00:12:27;;;;;;;9.23;4.10;;;;;;;15.32;29.86;95468.03;5028817;28;20452;-57
2022/04/14 00:14:54;;;;;;;7.30;4.13;;;;;;;15.29;29.16;95465.94;5026472;28;20441;-54
2022/04/14 00:17:21;;;;;;;4.97;3.40;;;;;;;14.42;30.22;95475.09;5027868;28;20479;-57
2022/04/14 00:19:48;;;;;;;5.50;3.73;;;;;;;13.30;31.70;95477.00;5028296;28;20456;-59
2022/04/14 00:22:15;;;;;;;7.37;3.90;;;;;;;13.88;31.28;95476.63;5028443;28;20444;-55
2022/04/14 00:24:42;;;;;;;7.13;4.60;;;;;;;13.66;31.78;95473.44;5028093;28;20476;-57
2022/04/14 00:27:09;;;;;;;6.83;4.03;;;;;;;13.71;31.74;95470.81;5028344;28;20824;-57
2022/04/14 00:29:36;;;;;;;5.27;4.20;;;;;;;13.99;31.34;95472.97;5028489;28;20927;-55
2022/04/14 00:32:03;;;;;;;8.73;4.27;;;;;;;14.93;30.02;95467.91;5028062;28;20496;-54
2022/04/14 00:34:30;;;;;;;7.10;4.63;;;;;;;15.31;29.20;95463.81;5027640;28;20443;-54
2022/04/14 00:36:56;;;;;;;8.03;4.60;;;;;;;14.64;30.54;95470.34;5028444;28;20978;-57
2022/04/14 00:39:23;;;;;;;7.13;4.73;;;;;;;14.35;30.84;95466.69;5027980;28;20808;-64
2022/04/14 00:41:50;;;;;;;8.83;4.87;;;;;;;14.72;30.78;95475.09;5028490;28;20817;-58
2022/04/14 00:44:17;;;;;;;9.07;5.03;;;;;;;14.89;30.47;95475.56;5028391;28;20518;-59
2022/04/14 00:46:44;;;;;;;6.83;4.30;;;;;;;15.14;30.33;95480.75;5028478;28;20815;-59
2022/04/14 00:49:11;;;;;;;7.43;4.50;;;;;;;15.32;29.90;95473.31;5027927;28;20449;-60
2022/04/14 00:51:38;;;;;;;9.67;4.30;;;;;;;15.22;30.24;95474.94;5027760;28;21073;-55
2022/04/14 00:54:06;;;;;;;6.30;4.90;;;;;;;15.25;29.99;95476.25;5028577;28;20432;-60
2022/04/14 00:56:33;;;;;;;11.70;4.63;;;;;;;15.29;30.24;95471.22;5029859;28;20440;-60
2022/04/14 00:59:00;;;;;;;8.77;4.77;;;;;;;15.51;29.84;95479.63;5031290;28;20436;-55
2022/04/14 01:01:26;;;;;;;8.40;4.90;;;;;;;15.39;30.77;95479.09;5031301;28;20435;-57
2022/04/14 01:03:56;;;;;;;7.73;4.97;;;;;;;15.44;29.78;95476.47;5032049;28;20620;-60
2022/04/14 01:06:23;;;;;;;6.77;4.63;;;;;;;15.22;30.45;95487.34;5030938;28;20943;-52
2022/04/14 01:11:37;;;;;;;9.43;5.30;;;;;;;14.91;30.83;95472.66;5031467;28;20440;-60
2022/04/14 01:14:04;;;;;;;8.40;5.30;;;;;;;15.12;30.25;95485.53;5031409;28;20566;-56
2022/04/14 01:16:31;;;;;;;9.57;6.10;;;;;;;15.08;30.58;95484.50;5030873;28;20436;-62
2022/04/14 01:18:59;;;;;;;16.50;9.17;;;;;;;14.95;30.75;95492.97;5030571;28;20451;-57
2022/04/14 01:21:33;;;;;;;21.20;13.47;;;;;;;14.89;31.38;95493.25;5030821;28;20458;-60
2022/04/14 01:24:02;;;;;;;23.97;15.73;;;;;;;15.16;31.67;95494.47;5031265;28;20487;-53
2022/04/14 01:26:36;;;;;;;26.77;15.63;;;;;;;15.00;31.29;95490.31;5031613;28;20447;-59
2022/04/14 01:29:04;;;;;;;21.67;14.23;;;;;;;15.09;31.13;95495.84;5031615;28;20509;-60
2022/04/14 01:31:31;;;;;;;25.07;13.70;;;;;;;15.04;31.87;95491.38;5030598;28;20509;-53
2022/04/14 01:33:58;;;;;;;18.33;13.20;;;;;;;15.04;31.52;95496.66;5031538;28;20432;-58
2022/04/14 01:36:24;;;;;;;20.13;12.40;;;;;;;14.83;31.59;95494.31;5030671;28;20436;-60
2022/04/14 01:38:51;;;;;;;16.97;11.27;;;;;;;14.42;31.91;95493.56;5031209;28;20447;-56
2022/04/14 01:41:18;;;;;;;16.53;11.83;;;;;;;14.27;32.41;95496.19;5030662;28;20452;-57
2022/04/14 01:43:46;;;;;;;19.23;11.40;;;;;;;14.17;32.41;95502.25;5030181;28;20491;-56
2022/04/14 01:46:13;;;;;;;15.33;10.67;;;;;;;14.21;32.57;95491.97;5030341;28;20435;-52
2022/04/14 01:48:40;;;;;;;15.73;10.53;;;;;;;14.05;32.80;95498.28;5031332;28;20475;-56
2022/04/14 01:51:06;;;;;;;18.93;10.83;;;;;;;14.03;32.62;95505.66;5030494;28;20497;-59
2022/04/14 01:53:33;;;;;;;17.13;10.30;;;;;;;14.07;32.22;95496.16;5029636;28;20546;-56
2022/04/14 01:56:00;;;;;;;17.27;10.53;;;;;;;14.13;33.00;95505.66;5030337;28;20887;-55
2022/04/14 01:58:45;;;;;;;18.93;11.33;;;;;;;14.05;32.95;95500.91;5030292;28;21057;-63
2022/04/14 02:01:12;;;;;;;17.57;9.73;;;;;;;13.99;32.43;95509.84;5030335;28;20538;-54
2022/04/14 02:03:39;;;;;;;14.37;7.47;;;;;;;13.72;32.53;95488.97;5030430;28;20486;-56
2022/04/14 02:06:06;;;;;;;14.07;7.53;;;;;;;13.48;32.97;95508.13;5030649;28;20444;-55
2022/04/14 02:08:33;;;;;;;13.63;7.03;;;;;;;13.65;32.63;95508.72;5029098;28;20450;-61
2022/04/14 02:11:02;;;;;;;13.93;7.70;;;;;;;13.75;32.52;95514.00;5030801;28;20482;-60
2022/04/14 02:13:31;;;;;;;10.47;6.43;;;;;;;13.61;32.18;95518.19;5030605;28;20427;-50
2022/04/14 02:15:58;;;;;;;9.47;6.30;;;;;;;13.76;32.36;95515.59;5029680;28;20873;-56
2022/04/14 02:18:26;;;;;;;10.27;6.40;;;;;;;13.83;31.90;95505.63;5029886;28;20476;-56
2022/04/14 02:20:53;;;;;;;8.43;5.90;;;;;;;13.86;31.66;95518.25;5029919;28;20539;-57
2022/04/14 02:23:20;;;;;;;13.97;6.73;;;;;;;13.79;31.62;95509.81;5030209;28;20455;-62
2022/04/14 02:25:47;;;;;;;12.03;6.47;;;;;;;13.74;32.02;95504.53;5029612;28;20957;-54
2022/04/14 02:28:14;;;;;;;11.97;7.60;;;;;;;13.99;31.95;95507.22;5030339;28;20451;-55
2022/04/14 02:30:41;;;;;;;12.53;8.10;;;;;;;13.92;32.98;95511.94;5029162;28;20428;-52
2022/04/14 02:33:08;;;;;;;12.57;7.47;;;;;;;13.91;32.77;95494.56;5030325;28;20443;-60
2022/04/14 02:35:35;;;;;;;13.23;7.30;;;;;;;14.02;32.71;95496.94;5029706;28;20432;-50
2022/04/14 02:38:02;;;;;;;11.50;7.57;;;;;;;13.76;32.74;95497.16;5030102;28;20559;-54
2022/04/14 02:40:29;;;;;;;15.70;7.30;;;;;;;13.63;32.79;95500.28;5029643;28;20477;-56
2022/04/14 02:42:59;;;;;;;13.77;6.97;;;;;;;13.68;33.16;95502.94;5029544;28;20477;-60
2022/04/14 02:45:27;;;;;;;13.17;7.07;;;;;;;13.81;33.20;95502.44;5029550;28;20930;-54
2022/04/14 02:47:54;;;;;;;18.20;8.30;;;;;;;13.78;33.27;95505.59;5029370;28;21040;-62
2022/04/14 02:50:22;;;;;;;12.90;7.40;;;;;;;13.78;32.85;95508.22;5029482;28;20459;-57
2022/04/14 02:52:50;;;;;;;13.67;6.80;;;;;;;13.91;32.71;95510.34;5029363;28;20436;-52
2022/04/14 02:55:18;;;;;;;11.13;5.83;;;;;;;13.72;32.58;95509.28;5029621;28;20431;-57
2022/04/14 02:57:46;;;;;;;12.63;6.27;;;;;;;13.79;32.44;95509.81;5029903;28;20436;-55
2022/04/14 03:00:14;;;;;;;13.37;6.43;;;;;;;13.74;32.90;95507.94;5028991;28;20450;-53
2022/04/14 03:02:41;;;;;;;10.27;6.53;;;;;;;13.64;33.08;95507.13;5029364;28;20432;-56
2022/04/14 03:05:09;;;;;;;11.30;7.50;;;;;;;13.72;32.67;95509.28;5029218;28;20479;-56
2022/04/14 03:07:36;;;;;;;11.87;8.60;;;;;;;13.54;33.08;95507.13;5029121;28;20439;-54
2022/04/14 03:10:04;;;;;;;19.10;10.60;;;;;;;13.72;32.53;95509.28;5028888;28;20454;-54
2022/04/14 03:12:46;;;;;;;16.87;10.47;;;;;;;13.81;32.67;95507.72;5029526;28;20447;-56
2022/04/14 03:15:14;;;;;;;14.03;10.13;;;;;;;13.81;32.64;95512.97;5029186;28;20444;-54
2022/04/14 03:17:41;;;;;;;12.97;9.00;;;;;;;13.77;32.26;95517.19;5028839;28;20476;-53
2022/04/14 03:20:09;;;;;;;14.73;9.67;;;;;;;13.68;32.79;95518.75;5029217;28;20455;-56
2022/04/14 03:22:36;;;;;;;14.33;11.03;;;;;;;13.48;33.16;95510.78;5029170;28;20458;-53
2022/04/14 03:25:08;;;;;;;17.20;12.40;;;;;;;13.66;33.06;95520.84;5028923;28;20490;-54
2022/04/14 03:27:36;;;;;;;21.37;16.00;;;;;;;13.52;33.06;95525.78;5029179;28;20432;-57
2022/04/14 03:30:08;;;;;;;30.00;19.17;;;;;;;13.39;33.36;95514.94;5029289;28;20454;-57
2022/04/14 03:32:43;;;;;;;28.53;19.93;;;;;;;13.35;33.77;95522.56;5029405;28;20535;-55
2022/04/14 03:35:11;;;;;;;28.57;19.77;;;;;;;13.17;33.66;95502.72;5028863;28;20447;-51
2022/04/14 03:37:40;;;;;;;29.00;18.90;;;;;;;13.28;33.69;95523.84;5028619;28;20420;-50
2022/04/14 03:40:08;;;;;;;27.20;17.00;;;;;;;13.18;33.91;95525.38;5028951;28;20475;-59
2022/04/14 03:42:36;;;;;;;27.30;17.23;;;;;;;13.16;33.78;95509.06;5028899;28;20943;-56
2022/04/14 03:45:06;;;;;;;22.47;14.80;;;;;;;13.16;33.94;95514.31;5028518;28;20502;-61
2022/04/14 03:47:33;;;;;;;23.70;13.40;;;;;;;13.01;34.19;95524.72;5028798;28;21042;-52
2022/04/14 03:50:01;;;;;;;21.87;12.33;;;;;;;12.93;34.68;95538.38;5028362;28;20482;-58
2022/04/14 03:52:28;;;;;;;22.13;12.57;;;;;;;13.00;33.97;95533.69;5028799;28;21172;-60
2022/04/14 03:54:55;;;;;;;20.97;12.47;;;;;;;12.99;34.42;95542.59;5028699;28;20513;-51
2022/04/14 03:57:22;;;;;;;27.37;11.77;;;;;;;12.90;34.69;95543.34;5028754;28;20443;-56
2022/04/14 03:59:48;;;;;;;21.73;12.20;;;;;;;13.00;34.96;95538.94;5028081;28;20436;-56
2022/04/14 04:02:16;;;;;;;26.00;13.70;;;;;;;12.72;34.86;95539.28;5027764;28;20465;-57
2022/04/14 04:04:43;;;;;;;24.97;12.87;;;;;;;12.80;34.87;95533.56;5029911;28;20498;-61
2022/04/14 04:07:10;;;;;;;26.27;14.10;;;;;;;12.54;35.44;95534.41;5030183;28;20885;-54
2022/04/14 04:09:38;;;;;;;35.17;14.87;;;;;;;11.94;36.62;95547.00;5030523;28;20450;-56
2022/04/14 04:12:06;;;;;;;32.60;13.60;;;;;;;11.12;38.17;95541.84;5030228;28;20450;-57
2022/04/14 04:14:33;;;;;;;24.93;13.13;;;;;;;10.84;38.87;95544.59;5048656;28;20435;-53
2022/04/14 04:17:00;;;;;;;29.47;13.63;;;;;;;10.49;40.24;95546.69;5048699;28;20479;-57
2022/04/14 04:19:27;;;;;;;24.27;11.93;;;;;;;11.09;38.37;95547.56;5048434;28;20441;-62
2022/04/14 04:21:55;;;;;;;35.33;13.37;;;;;;;11.93;37.85;95545.44;5047854;28;20470;-57
2022/04/14 04:24:21;;;;;;;30.97;13.87;;;;;;;12.19;37.06;95547.25;5030847;28;20484;-55
2022/04/14 04:26:48;;;;;;;33.53;13.77;;;;;;;12.40;36.28;95561.38;5029039;28;20497;-52
2022/04/14 04:29:15;;;;;;;30.70;13.60;;;;;;;12.48;36.56;95556.44;5028657;28;20506;-60
2022/04/14 04:31:42;;;;;;;36.37;14.73;;;;;;;12.55;36.38;95557.03;5029900;28;20570;-53
2022/04/14 04:34:09;;;;;;;30.33;13.07;;;;;;;12.50;36.62;95558.84;5032584;28;20446;-56
2022/04/14 04:36:36;;;;;;;34.47;14.10;;;;;;;12.47;36.09;95575.09;5036373;28;20200;-54
2022/04/14 04:39:04;;;;;;;34.10;13.37;;;;;;;12.53;36.31;95585.41;5051956;28;20205;-56
2022/04/14 04:41:31;;;;;;;37.97;16.63;;;;;;;12.69;36.24;95584.50;5051614;28;20455;-55
2022/04/14 04:43:58;;;;;;;34.93;15.43;;;;;;;12.50;36.53;95591.16;5037123;28;20443;-54
2022/04/14 04:46:25;;;;;;;36.10;15.10;;;;;;;12.84;35.95;95586.44;5031942;28;20476;-58
2022/04/14 04:48:52;;;;;;;39.50;16.17;;;;;;;12.82;36.07;95586.69;5049388;28;20524;-65
2022/04/14 04:51:18;;;;;;;60.57;16.03;;;;;;;12.92;36.22;95599.91;5051912;28;20435;-67
2022/04/14 04:53:45;;;;;;;64.13;35.30;;;;;;;12.93;36.45;95603.34;5052385;28;20477;-57
2022/04/14 04:56:13;;;;;;;50.37;28.00;;;;;;;13.08;36.19;95604.25;5051634;28;20431;-59
2022/04/14 04:58:39;;;;;;;36.63;14.67;;;;;;;13.20;36.02;95609.34;5052249;28;20992;-56
2022/04/14 05:01:06;;;;;;;37.43;14.73;;;;;;;13.25;35.49;95603.31;5052009;28;20516;-56
2022/04/14 05:03:33;;;;;;;31.70;14.07;;;;;;;13.35;35.46;95609.44;5052698;28;20808;-58
2022/04/14 05:06:00;;;;;;;30.27;14.90;;;;;;;13.47;35.09;95614.47;5051877;28;20560;-61
2022/04/14 05:08:27;;;;;;;33.13;13.93;;;;;;;13.61;34.62;95613.75;5052295;28;20795;-59
2022/04/14 05:11:02;;;;;;;34.07;14.03;;;;;;;13.65;34.23;95603.53;5051764;28;20519;-57
2022/04/14 05:13:29;;;;;;;24.97;12.83;;;;;;;13.57;34.55;95612.72;5051987;28;20477;-57
2022/04/14 05:15:56;;;;;;;32.07;13.60;;;;;;;13.95;33.98;95609.72;5051538;28;20457;-59
2022/04/14 05:18:23;;;;;;;30.17;13.57;;;;;;;13.64;34.08;95607.19;5050935;28;20604;-58
2022/04/14 05:20:50;;;;;;;31.03;13.43;;;;;;;13.93;34.04;95616.28;5051556;28;20451;-64
2022/04/14 05:23:17;;;;;;;32.07;14.77;;;;;;;14.09;33.74;95610.78;5050452;28;20889;-56
2022/04/14 05:25:44;;;;;;;25.20;13.27;;;;;;;13.91;34.10;95613.91;5050835;28;21067;-60
2022/04/14 05:28:11;;;;;;;25.27;13.30;;;;;;;13.63;34.78;95610.91;5051645;28;20446;-61
2022/04/14 05:30:38;;;;;;;25.03;14.13;;;;;;;13.79;34.72;95615.97;5050308;28;20451;-57
2022/04/14 05:33:10;;;;;;;32.33;14.73;;;;;;;14.00;34.83;95616.81;5051697;28;20439;-57
2022/04/14 05:35:38;;;;;;;60.57;38.90;;;;;;;14.17;35.45;95615.56;5051054;28;20483;-57
2022/04/14 05:38:06;;;;;;;29.37;12.70;;;;;;;14.59;34.74;95623.31;5036156;28;20435;-58
2022/04/14 05:40:35;;;;;;;37.83;12.30;;;;;;;14.61;34.49;95636.25;5031023;28;20486;-54
2022/04/14 05:43:02;;;;;;;25.27;11.97;;;;;;;14.73;34.05;95627.03;5031217;28;20490;-56
2022/04/14 05:45:30;;;;;;;33.60;13.67;;;;;;;14.55;34.23;95624.09;5028726;28;20506;-61
2022/04/14 05:47:56;;;;;;;27.23;12.97;;;;;;;14.61;34.11;95612.50;5029031;28;20435;-56
2022/04/14 05:50:23;;;;;;;32.47;13.23;;;;;;;14.84;33.64;95628.63;5029086;28;20444;-62
2022/04/14 05:52:50;;;;;;;26.10;12.33;;;;;;;14.91;33.75;95634.41;5030788;28;20950;-55
2022/04/14 05:55:17;;;;;;;28.13;13.47;;;;;;;14.66;33.85;95626.50;5030781;28;20509;-61
2022/04/14 05:57:44;;;;;;;29.13;13.27;;;;;;;14.80;33.56;95630.19;5031540;28;20428;-57
2022/04/14 06:00:13;;;;;;;23.27;11.77;;;;;;;14.93;33.39;95627.03;5030521;28;20539;-58
2022/04/14 06:02:40;;;;;;;25.23;12.53;;;;;;;15.02;32.68;95625.44;5031169;28;20448;-60
2022/04/14 06:05:08;;;;;;;19.77;11.07;;;;;;;14.85;32.53;95630.19;5030675;28;20512;-60
2022/04/14 06:07:35;;;;;;;29.83;11.93;;;;;;;15.05;32.66;95630.19;5031237;28;20459;-61
2022/04/14 06:10:02;;;;;;;26.40;11.80;;;;;;;15.00;32.72;95632.03;5030216;28;20424;-60
2022/04/14 06:12:29;;;;;;;22.70;11.30;;;;;;;15.27;31.87;95628.06;5029594;28;20810;-60
2022/04/14 06:14:56;;;;;;;18.73;10.70;;;;;;;15.42;32.35;95634.41;5030484;28;20542;-61
2022/04/14 06:17:24;;;;;;;25.63;10.83;;;;;;;15.67;32.03;95634.34;5030269;28;20871;-55
2022/04/14 06:19:51;;;;;;;19.20;10.27;;;;;;;15.07;31.63;95637.88;5029094;28;20436;-61
2022/04/14 06:22:18;;;;;;;22.33;10.23;;;;;;;15.47;31.33;95627.28;5030036;28;20475;-61
2022/04/14 06:24:45;;;;;;;23.87;10.07;;;;;;;15.36;31.36;95624.88;5029196;28;20479;-59
2022/04/14 06:27:12;;;;;;;25.77;9.97;;;;;;;15.29;30.82;95635.69;5030241;28;20454;-53
2022/04/14 06:29:39;;;;;;;17.90;9.70;;;;;;;15.58;30.17;95634.13;5029096;28;20436;-55
2022/04/14 06:32:06;;;;;;;19.40;9.27;;;;;;;15.75;30.55;95628.50;5030078;28;20777;-57
2022/04/14 06:34:33;;;;;;;17.53;9.40;;;;;;;15.82;29.99;95623.75;5028688;28;20447;-58
2022/04/14 06:37:00;;;;;;;19.03;10.23;;;;;;;15.87;30.57;95634.28;5029168;28;20483;-51
2022/04/14 06:39:27;;;;;;;19.60;9.63;;;;;;;16.00;30.26;95626.56;5028895;28;20455;-58
2022/04/14 06:41:54;;;;;;;24.33;9.50;;;;;;;16.20;29.92;95625.69;5029954;28;20439;-59
2022/04/14 06:44:22;;;;;;;23.20;9.93;;;;;;;16.41;29.92;95631.63;5029021;28;20638;-60
2022/04/14 06:46:49;;;;;;;15.67;9.60;;;;;;;16.35;29.91;95625.59;5029454;28;20517;-59
2022/04/14 06:49:16;;;;;;;18.97;9.37;;;;;;;16.39;29.92;95623.97;5029328;28;20926;-56
2022/04/14 06:51:43;;;;;;;16.47;10.97;;;;;;;16.49;29.64;95625.81;5029025;28;20432;-59
2022/04/14 06:54:10;;;;;;;19.17;12.27;;;;;;;16.02;29.52;95628.94;5028579;28;20442;-64
2022/04/14 06:56:37;;;;;;;21.93;11.57;;;;;;;16.04;30.37;95632.09;5028739;28;20552;-59
2022/04/14 06:59:04;;;;;;;21.07;11.27;;;;;;;16.29;30.20;95628.53;5029231;28;20444;-58
2022/04/14 07:01:30;;;;;;;16.87;11.03;;;;;;;16.63;30.53;95643.44;5028720;28;20538;-59
2022/04/14 07:03:58;;;;;;;14.37;10.50;;;;;;;16.76;29.85;95648.13;5028988;28;20447;-64
2022/04/14 07:06:25;;;;;;;21.73;10.30;;;;;;;17.01;29.59;95637.34;5028867;28;20515;-56
2022/04/14 07:08:52;;;;;;;20.37;10.47;;;;;;;17.29;29.50;95643.72;5029010;28;20444;-58
2022/04/14 07:11:19;;;;;;;15.63;9.43;;;;;;;17.57;29.06;95644.81;5028662;28;20989;-55
2022/04/14 07:13:46;;;;;;;17.10;9.20;;;;;;;17.06;28.73;95645.22;5029055;28;20446;-58
2022/04/14 07:16:13;;;;;;;16.60;9.13;;;;;;;17.54;28.82;95627.63;5028912;28;20543;-61
2022/04/14 07:18:40;;;;;;;18.57;8.73;;;;;;;17.67;28.29;95642.06;4989344;28;1158603;-52
2022/04/14 07:21:07;;;;;;;18.03;9.07;;;;;;;17.83;29.47;95633.66;5029037;28;20186;-56
2022/04/14 07:23:34;;;;;;;15.13;8.70;;;;;;;17.89;27.89;95637.03;5029534;28;20962;-58
2022/04/14 07:26:01;;;;;;;13.07;7.80;;;;;;;17.60;28.05;95628.34;5028719;28;20484;-58
2022/04/14 07:28:28;;;;;;;14.77;8.40;;;;;;;17.49;29.08;95637.47;5029419;28;20974;-59
2022/04/14 07:30:55;;;;;;;10.87;7.30;;;;;;;17.65;28.57;95620.34;5029228;28;20495;-60
2022/04/14 07:33:22;;;;;;;17.27;7.27;;;;;;;17.91;28.34;95626.94;5029603;28;20440;-56
2022/04/14 07:35:51;;;;;;;13.27;7.73;;;;;;;17.90;28.27;95617.44;5029051;28;20475;-58
2022/04/14 07:38:18;;;;;;;11.03;7.30;;;;;;;17.89;27.29;95621.13;5029196;28;20424;-61
2022/04/14 07:40:46;;;;;;;14.00;7.63;;;;;;;18.07;28.72;95617.72;5028912;28;20451;-52
2022/04/14 07:43:13;;;;;;;14.07;7.97;;;;;;;18.34;27.93;95607.28;5029772;28;20546;-58
2022/04/14 07:45:42;;;;;;;11.27;7.23;;;;;;;18.57;27.70;95605.69;5028973;28;20483;-57
2022/04/14 07:48:09;;;;;;;12.47;7.07;;;;;;;18.47;28.59;95606.59;5029414;28;20479;-53
2022/04/14 07:50:36;;;;;;;15.30;7.37;;;;;;;18.43;27.70;95608.25;5028530;28;20450;-58
2022/04/14 07:53:03;;;;;;;12.73;7.20;;;;;;;19.00;27.19;95613.25;5029431;28;20451;-58
2022/04/14 07:55:33;;;;;;;19.87;8.40;;;;;;;18.47;26.59;95611.91;5029432;28;20436;-61
2022/04/14 07:58:12;;;;;;;13.93;8.17;;;;;;;18.95;26.01;95602.69;5029621;28;20440;-59
2022/04/14 08:00:40;;;;;;;14.07;8.07;;;;;;;18.86;26.65;95599.13;5028842;28;20908;-60
2022/04/14 08:03:07;;;;;;;14.60;8.50;;;;;;;19.45;26.77;95600.28;5028975;28;20428;-59
2022/04/14 08:05:36;;;;;;;14.23;8.37;;;;;;;19.50;26.83;95608.16;5029090;28;20511;-61
2022/04/14 08:08:05;;;;;;;21.30;8.60;;;;;;;19.65;26.43;95599.91;5033510;28;20494;-54
2022/04/14 08:10:33;;;;;;;16.53;8.67;;;;;;;19.76;26.57;95595.97;5032748;28;20456;-62
2022/04/14 08:13:00;;;;;;;21.53;8.30;;;;;;;19.77;26.45;95597.53;5033651;28;20440;-55
2022/04/14 08:15:29;;;;;;;13.70;7.40;;;;;;;19.70;26.50;95586.50;5032817;28;20435;-51
2022/04/14 08:17:57;;;;;;;16.20;7.67;;;;;;;19.92;26.70;95599.91;5033173;28;20467;-58
2022/04/14 08:20:24;;;;;;;13.27;8.20;;;;;;;20.13;26.36;95601.06;5032426;28;20440;-61
2022/04/14 08:22:56;;;;;;;15.10;9.07;;;;;;;20.09;26.86;95590.22;5033193;28;20490;-62
2022/04/14 08:25:32;;;;;;;22.93;8.00;;;;;;;20.33;26.67;95583.94;5032259;28;20483;-55
2022/04/14 08:28:02;;;;;;;22.30;8.30;;;;;;;20.29;25.84;95593.59;5033068;28;20497;-60
2022/04/14 08:30:31;;;;;;;14.63;8.23;;;;;;;20.18;25.72;95593.78;5032330;28;20865;-60
2022/04/14 08:33:00;;;;;;;12.37;7.70;;;;;;;20.68;25.31;95589.22;5033343;28;20446;-55
2022/04/14 08:35:28;;;;;;;15.87;7.63;;;;;;;20.65;24.80;95587.19;5032033;28;20448;-59
2022/04/14 08:37:55;;;;;;;11.57;7.83;;;;;;;20.49;25.57;95588.59;5032563;28;20841;-61
2022/04/14 08:40:22;;;;;;;14.73;7.43;;;;;;;20.72;24.76;95595.53;5031855;28;20486;-62
2022/04/14 08:42:56;;;;;;;19.60;7.10;;;;;;;20.96;24.65;95593.38;5032675;28;21039;-59
2022/04/14 08:45:26;;;;;;;23.23;6.90;;;;;;;20.91;24.99;95590.03;5032323;28;20525;-60
2022/04/14 08:47:54;;;;;;;9.73;7.10;;;;;;;20.98;25.03;95585.84;5032343;28;20446;-61
2022/04/14 08:50:21;;;;;;;13.53;6.50;;;;;;;21.29;24.83;95574.47;5031579;28;20450;-55
2022/04/14 08:52:49;;;;;;;11.40;6.80;;;;;;;21.23;24.38;95581.78;5032236;28;20439;-63
2022/04/14 08:55:16;;;;;;;12.10;7.23;;;;;;;21.26;24.60;95577.75;5031726;28;20914;-59
2022/04/14 08:57:44;;;;;;;18.03;6.93;;;;;;;21.43;24.98;95581.28;5032627;28;20468;-61
2022/04/14 09:00:13;;;;;;;18.23;7.57;;;;;;;21.83;24.05;95563.41;5031612;28;20447;-60
2022/04/14 09:02:43;;;;;;;13.43;6.73;;;;;;;21.81;24.53;95555.72;5032183;28;20927;-57
2022/04/14 09:05:17;;;;;;;16.93;6.83;;;;;;;21.63;24.06;95553.28;5031363;28;20875;-60
2022/04/14 09:07:50;;;;;;;13.23;6.60;;;;;;;21.81;23.73;95558.38;5032034;28;20490;-56
2022/04/14 09:10:18;;;;;;;17.27;6.10;;;;;;;21.76;23.79;95557.72;5031267;28;20436;-53
2022/04/14 09:12:49;;;;;;;15.67;6.43;;;;;;;21.92;22.33;95551.69;5032423;28;20435;-54
2022/04/14 09:15:17;;;;;;;12.03;5.67;;;;;;;21.73;23.44;95542.34;5031737;28;20454;-62
2022/04/14 09:17:44;;;;;;;13.80;5.30;;;;;;;22.09;23.81;95548.25;5031757;28;20463;-65
2022/04/14 09:20:33;;;;;;;10.60;5.00;;;;;;;22.13;23.05;95541.19;5030780;28;20498;-57
2022/04/14 09:23:18;;;;;;;10.70;5.20;;;;;;;22.18;22.75;95538.38;5031999;28;20502;-62
2022/04/14 09:25:53;;;;;;;9.50;4.43;;;;;;;22.13;22.71;95535.88;5031125;28;20549;-57
2022/04/14 09:28:21;;;;;;;9.07;4.80;;;;;;;22.42;21.77;95538.72;5031920;28;20530;-60
2022/04/14 09:31:08;;;;;;;8.07;3.97;;;;;;;22.49;21.24;95528.34;5031192;28;20431;-58
2022/04/14 09:33:46;;;;;;;6.30;3.70;;;;;;;22.81;21.87;95530.53;5031468;28;20443;-54
2022/04/14 09:36:17;;;;;;;11.97;3.90;;;;;;;23.29;21.10;95529.47;5031048;28;20447;-55
2022/04/14 09:38:50;;;;;;;6.17;3.60;;;;;;;23.55;20.67;95516.84;5031890;28;20542;-53
2022/04/14 09:41:39;;;;;;;8.17;3.83;;;;;;;23.21;20.70;95517.69;5030682;28;20435;-58
2022/04/14 09:44:09;;;;;;;6.43;3.63;;;;;;;23.30;19.94;95515.06;5031484;28;20440;-65
2022/04/14 09:46:44;;;;;;;7.07;3.63;;;;;;;23.34;19.98;95516.00;5030808;28;20479;-55
2022/04/14 09:49:13;;;;;;;2.90;2.40;;;;;;;24.03;18.59;95507.28;5031026;28;20440;-64
2022/04/14 09:51:45;;;;;;;5.33;2.80;;;;;;;24.23;19.14;95500.41;5030977;28;20432;-53
2022/04/14 09:54:19;;;;;;;5.67;2.70;;;;;;;24.22;18.36;95501.50;5031450;28;20447;-56
2022/04/14 09:56:51;;;;;;;4.93;3.07;;;;;;;24.20;18.59;95490.34;5030780;28;20977;-60
2022/04/14 09:59:20;;;;;;;9.43;3.60;;;;;;;24.45;18.51;95486.66;5030920;28;20443;-55
2022/04/14 10:01:48;;;;;;;7.43;3.47;;;;;;;25.00;18.06;95487.13;5031220;28;20451;-56
2022/04/14 10:04:32;;;;;;;6.30;3.43;;;;;;;25.37;17.73;95489.84;5031198;28;20443;-57
2022/04/14 10:07:06;;;;;;;7.03;2.90;;;;;;;25.45;17.35;95479.06;5030674;28;21372;-57
2022/04/14 10:09:35;;;;;;;5.67;3.10;;;;;;;24.96;17.89;95482.75;5030210;28;20288;-62
2022/04/14 10:12:03;;;;;;;7.17;2.60;;;;;;;23.78;17.51;95480.66;5031127;28;20291;-55
2022/04/14 10:14:30;;;;;;;7.43;3.30;;;;;;;24.63;18.09;95481.94;5030346;28;20196;-56
2022/04/14 10:16:59;;;;;;;6.53;2.90;;;;;;;25.07;17.84;95476.63;5030604;28;20233;-57
2022/04/14 10:19:32;;;;;;;5.47;2.80;;;;;;;25.40;17.91;95470.44;5029828;28;20228;-56
2022/04/14 10:22:00;;;;;;;6.10;3.50;;;;;;;25.68;17.30;95476.69;5030437;28;20201;-57
2022/04/14 10:24:27;;;;;;;5.90;3.97;;;;;;;25.56;17.19;95465.97;5029914;28;20602;-53
2022/04/14 10:26:54;;;;;;;7.30;3.30;;;;;;;25.80;17.95;95482.06;5030365;28;20213;-54
2022/04/14 10:29:22;;;;;;;14.53;6.63;;;;;;;25.73;18.20;95471.13;5029945;28;20296;-60
2022/04/14 10:31:53;;;;;;;17.77;12.80;;;;;;;25.66;16.77;95476.25;5030476;28;20303;-58
2022/04/14 10:34:24;;;;;;;4.63;3.80;;;;;;;26.00;16.85;95478.47;5030532;28;20197;-62
2022/04/14 10:36:52;;;;;;;3.70;2.90;;;;;;;23.57;17.14;95471.81;5030698;28;20267;-56
2022/04/14 10:39:20;;;;;;;38.17;30.60;;;;;;;24.70;17.22;95474.16;5030124;28;20232;-54
2022/04/14 10:41:51;;;;;;;6.53;3.90;;;;;;;25.30;18.32;95468.16;5030526;28;20190;-56
2022/04/14 10:44:22;;;;;;;61.87;45.30;;;;;;;25.89;17.98;95469.31;5030848;28;20284;-58
2022/04/14 10:46:55;;;;;;;6.53;3.77;;;;;;;26.13;18.36;95479.25;5031057;28;20205;-58
2022/04/14 10:49:32;;;;;;;3.63;2.93;;;;;;;26.06;17.23;95471.75;5030089;28;20193;-57
2022/04/14 10:52:24;;;;;;;5.87;3.27;;;;;;;26.11;16.10;95466.16;5030329;28;20197;-60
2022/04/14 10:54:59;;;;;;;4.80;3.40;;;;;;;26.44;16.82;95465.97;5030329;28;20649;-63
2022/04/14 10:57:39;;;;;;;8.53;3.67;;;;;;;26.48;16.28;95472.97;5029834;28;20209;-57
2022/04/14 11:00:18;;;;;;;6.30;3.10;;;;;;;26.06;16.28;95463.69;5029463;28;20215;-58
2022/04/14 11:03:02;;;;;;;6.03;2.90;;;;;;;25.93;16.47;95464.81;5030266;28;20598;-56
2022/04/14 11:05:43;;;;;;;9.37;4.10;;;;;;;26.20;16.92;95457.97;5029440;28;20205;-59
2022/04/14 11:08:29;;;;;;;4.87;2.97;;;;;;;26.31;16.20;95454.47;5029901;28;20317;-55
2022/04/14 11:11:01;;;;;;;6.77;3.53;;;;;;;26.33;16.81;95452.19;5029179;28;20264;-63
2022/04/14 11:13:55;;;;;;;6.20;3.07;;;;;;;26.82;16.85;95453.59;5029450;28;20201;-59
2022/04/14 11:16:42;;;;;;;5.83;3.33;;;;;;;26.94;16.92;95455.44;5023711;28;20239;-60
2022/04/14 11:19:18;;;;;;;3.90;2.80;;;;;;;27.13;16.11;95447.47;5029367;28;20205;-54
2022/04/14 11:22:12;;;;;;;7.63;2.97;;;;;;;28.33;15.96;95437.56;5029195;28;20196;-54
2022/04/14 11:24:43;;;;;;;8.37;3.77;;;;;;;28.57;16.29;95442.72;5029289;28;20300;-58
2022/04/14 11:27:20;;;;;;;4.43;3.50;;;;;;;28.59;15.87;95432.34;5029939;28;20290;-62
2022/04/14 11:29:49;;;;;;;5.33;3.50;;;;;;;28.13;15.84;95446.78;5029162;28;20616;-62
2022/04/14 11:32:35;;;;;;;5.60;3.27;;;;;;;27.95;15.10;95437.53;5029473;28;20287;-57
2022/04/14 11:35:30;;;;;;;26.33;19.50;;;;;;;27.84;16.44;95444.56;5029156;28;20204;-64